createdAt,value
2023-01-30T00:00:15.728Z,101686.94
2023-01-30T00:01:15.692Z,101692.06
2023-01-30T00:02:07.236Z,101694.75
2023-01-30T00:02:58.866Z,101688.72
2023-01-30T00:03:50.302Z,101687.25
2023-01-30T00:04:41.936Z,101690.72
2023-01-30T00:05:33.401Z,101688.38
2023-01-30T00:06:25.647Z,101685.25
2023-01-30T00:07:17.538Z,101690.50
2023-01-30T00:08:09.027Z,101680.31
2023-01-30T00:09:00.458Z,101675.50
2023-01-30T00:09:51.874Z,101682.44
2023-01-30T00:10:44.491Z,101672.16
2023-01-30T00:11:36.134Z,101673.72
2023-01-30T00:12:27.925Z,101668.13
2023-01-30T00:13:19.411Z,101666.59
2023-01-30T00:14:11.098Z,101652.72
2023-01-30T00:15:02.538Z,101644.81
2023-01-30T00:15:54.481Z,101640.66
2023-01-30T00:16:47.415Z,101635.53
2023-01-30T00:17:38.850Z,101636.44
2023-01-30T00:18:31.185Z,101637.44
2023-01-30T00:19:22.934Z,101636.19
2023-01-30T00:20:15.797Z,101643.13
2023-01-30T00:21:09.986Z,101644.22
2023-01-30T00:22:01.473Z,101649.88
2023-01-30T00:23:00.905Z,101647.41
2023-01-30T00:23:52.774Z,101642.59
2023-01-30T00:24:44.539Z,101635.72
2023-01-30T00:25:36.538Z,101637.63
2023-01-30T00:26:28.078Z,101638.03
2023-01-30T00:27:19.746Z,101640.44
2023-01-30T00:28:11.157Z,101639.97
2023-01-30T00:29:02.560Z,101643.63
2023-01-30T00:30:02.866Z,101643.84
2023-01-30T00:30:56.917Z,101643.94
2023-01-30T00:31:48.703Z,101639.22
2023-01-30T00:32:41.974Z,101639.34
2023-01-30T00:33:33.516Z,101638.16
2023-01-30T00:34:24.971Z,101631.72
2023-01-30T00:35:17.107Z,101629.47
2023-01-30T00:36:10.528Z,101637.38
2023-01-30T00:37:08.486Z,101638.28
2023-01-30T00:38:01.602Z,101632.44
2023-01-30T00:38:53.252Z,101632.53
2023-01-30T00:39:44.727Z,101632.75
2023-01-30T00:40:36.475Z,101623.03
2023-01-30T00:41:48.072Z,101621.25
2023-01-30T00:42:58.194Z,101621.16
2023-01-30T00:44:08.458Z,101617.09
2023-01-30T00:45:19.059Z,101617.38
2023-01-30T00:46:50.696Z,101605.63
2023-01-30T00:47:42.366Z,101609.78
2023-01-30T00:48:33.856Z,101601.28
2023-01-30T00:49:25.465Z,101613.81
2023-01-30T00:50:17.039Z,101617.19
2023-01-30T00:51:08.618Z,101601.28
2023-01-30T00:52:02.785Z,101606.50
2023-01-30T00:52:54.205Z,101605.72
2023-01-30T00:53:45.684Z,101604.25
2023-01-30T00:54:39.009Z,101598.97
2023-01-30T00:55:30.393Z,101595.72
2023-01-30T00:56:21.953Z,101595.63
2023-01-30T00:57:13.388Z,101597.19
2023-01-30T00:58:06.095Z,101600.56
2023-01-30T00:58:57.528Z,101593.94
2023-01-30T00:59:49.749Z,101595.25
2023-01-30T01:00:42.273Z,101602.06
2023-01-30T01:01:34.081Z,101595.94
2023-01-30T01:02:26.367Z,101597.50
2023-01-30T01:03:19.168Z,101591.50
2023-01-30T01:04:10.779Z,101587.91
2023-01-30T01:05:02.290Z,101575.34
2023-01-30T01:05:53.955Z,101574.94
2023-01-30T01:06:45.501Z,101568.00
2023-01-30T01:07:37.391Z,101564.63
2023-01-30T01:08:30.250Z,101574.06
2023-01-30T01:09:21.841Z,101566.22
2023-01-30T01:10:16.285Z,101569.00
2023-01-30T01:11:07.937Z,101568.91
2023-01-30T01:11:59.329Z,101569.28
2023-01-30T01:12:54.359Z,101564.75
2023-01-30T01:13:46.040Z,101559.59
2023-01-30T01:14:37.737Z,101560.47
2023-01-30T01:15:30.250Z,101559.97
2023-01-30T01:16:23.028Z,101566.59
2023-01-30T01:17:14.608Z,101569.78
2023-01-30T01:18:06.410Z,101580.38
2023-01-30T01:18:58.739Z,101577.00
2023-01-30T01:19:50.349Z,101582.84
2023-01-30T01:20:41.940Z,101580.28
2023-01-30T01:21:33.412Z,101577.81
2023-01-30T01:22:25.054Z,101574.72
2023-01-30T01:23:16.682Z,101572.13
2023-01-30T01:24:13.388Z,101568.09
2023-01-30T01:25:06.478Z,101567.06
2023-01-30T01:26:01.688Z,101566.19
2023-01-30T01:26:53.732Z,101561.66
2023-01-30T01:27:46.100Z,101559.88
2023-01-30T01:28:38.750Z,101554.59
2023-01-30T01:29:30.545Z,101556.31
2023-01-30T01:30:23.009Z,101551.25
2023-01-30T01:31:17.484Z,101559.16
2023-01-30T01:32:09.190Z,101552.22
2023-01-30T01:33:00.878Z,101556.19
2023-01-30T01:33:52.766Z,101551.25
2023-01-30T01:34:44.256Z,101557.56
2023-01-30T01:35:40.923Z,101547.25
2023-01-30T01:37:02.356Z,101554.31
2023-01-30T01:37:44.159Z,101540.81
2023-01-30T01:38:35.638Z,101542.22
2023-01-30T01:39:47.126Z,101539.03
2023-01-30T01:40:57.238Z,101542.78
2023-01-30T01:41:48.687Z,101540.91
2023-01-30T01:42:40.590Z,101535.56
2023-01-30T01:43:38.529Z,101532.84
2023-01-30T01:45:08.574Z,101522.06
2023-01-30T01:46:14.130Z,101537.44
2023-01-30T01:47:05.916Z,101543.59
2023-01-30T01:48:15.766Z,101546.22
2023-01-30T01:49:22.658Z,101534.56
2023-01-30T01:50:21.377Z,101535.16
2023-01-30T01:51:40.390Z,101531.38
2023-01-30T01:52:32.986Z,101527.03
2023-01-30T01:53:33.034Z,101523.72
2023-01-30T01:54:44.457Z,101528.97
2023-01-30T01:55:41.437Z,101532.25
2023-01-30T01:56:35.974Z,101537.13
2023-01-30T01:57:39.865Z,101536.03
2023-01-30T01:58:52.770Z,101524.88
2023-01-30T01:59:54.991Z,101523.78
2023-01-30T02:00:48.573Z,101520.22
2023-01-30T02:01:40.072Z,101524.06
2023-01-30T02:02:34.633Z,101525.75
2023-01-30T02:03:30.697Z,101520.88
2023-01-30T02:04:42.308Z,101525.06
2023-01-30T02:05:44.113Z,101516.53
2023-01-30T02:06:38.993Z,101523.47
2023-01-30T02:07:57.712Z,101518.16
2023-01-30T02:08:57.260Z,101510.16
2023-01-30T02:09:51.700Z,101521.75
2023-01-30T02:11:03.692Z,101521.63
2023-01-30T02:12:01.774Z,101512.31
2023-01-30T02:12:53.451Z,101514.50
2023-01-30T02:13:48.324Z,101509.06
2023-01-30T02:14:41.303Z,101512.56
2023-01-30T02:15:33.745Z,101505.69
2023-01-30T02:16:25.355Z,101490.97
2023-01-30T02:17:18.313Z,101487.47
2023-01-30T02:18:10.565Z,101481.91
2023-01-30T02:19:02.371Z,101485.19
2023-01-30T02:20:08.341Z,101494.53
2023-01-30T02:21:44.498Z,101491.75
2023-01-30T02:22:54.190Z,101481.09
2023-01-30T02:24:04.851Z,101477.84
2023-01-30T02:25:21.376Z,101474.53
2023-01-30T02:26:31.988Z,101476.06
2023-01-30T02:28:04.120Z,101471.53
2023-01-30T02:29:48.659Z,101479.25
2023-01-30T02:30:52.676Z,101472.56
2023-01-30T02:31:53.932Z,101471.72
2023-01-30T02:33:01.220Z,101475.88
2023-01-30T02:34:29.707Z,101470.72
2023-01-30T02:35:27.500Z,101463.88
2023-01-30T02:36:52.033Z,101465.75
2023-01-30T02:37:57.339Z,101463.34
2023-01-30T02:38:49.030Z,101464.06
2023-01-30T02:40:08.798Z,101465.13
2023-01-30T02:41:15.416Z,101454.50
2023-01-30T02:42:28.653Z,101455.91
2023-01-30T02:43:52.053Z,101455.63
2023-01-30T02:45:01.385Z,101449.06
2023-01-30T02:46:08.893Z,101449.88
2023-01-30T02:47:42.340Z,101442.66
2023-01-30T02:48:49.388Z,101445.22
2023-01-30T02:49:48.816Z,101439.38
2023-01-30T02:50:54.745Z,101443.56
2023-01-30T02:51:50.204Z,101442.81
2023-01-30T02:52:43.072Z,101432.63
2023-01-30T02:53:36.543Z,101427.13
2023-01-30T02:54:29.415Z,101433.88
2023-01-30T02:55:27.147Z,101426.31
2023-01-30T02:56:19.069Z,101433.94
2023-01-30T02:57:25.561Z,101431.38
2023-01-30T02:58:26.516Z,101429.69
2023-01-30T02:59:25.649Z,101430.50
2023-01-30T03:00:32.931Z,101424.53
2023-01-30T03:01:37.823Z,101428.00
2023-01-30T03:03:08.060Z,101429.34
2023-01-30T03:04:31.300Z,101426.06
2023-01-30T03:05:46.078Z,101431.81
2023-01-30T03:07:03.895Z,101424.00
2023-01-30T03:08:28.124Z,101409.16
2023-01-30T03:09:44.288Z,101400.91
2023-01-30T03:11:04.410Z,101397.03
2023-01-30T03:12:05.248Z,101402.69
2023-01-30T03:13:27.092Z,101410.06
2023-01-30T03:14:42.740Z,101409.88
2023-01-30T03:15:50.066Z,101409.63
2023-01-30T03:16:41.935Z,101407.16
2023-01-30T03:17:36.559Z,101409.56
2023-01-30T03:18:28.432Z,101408.94
2023-01-30T03:19:21.152Z,101409.72
2023-01-30T03:20:15.491Z,101403.22
2023-01-30T03:21:08.269Z,101424.53
2023-01-30T03:22:00.496Z,101402.97
2023-01-30T03:22:54.468Z,101406.34
2023-01-30T03:23:47.244Z,101406.16
2023-01-30T03:24:38.746Z,101405.38
2023-01-30T03:25:32.363Z,101416.28
2023-01-30T03:26:30.552Z,101414.25
2023-01-30T03:27:22.973Z,101403.84
2023-01-30T03:28:22.521Z,101407.16
2023-01-30T03:29:15.082Z,101409.56
2023-01-30T03:30:07.795Z,101405.28
2023-01-30T03:31:00.363Z,101401.63
2023-01-30T03:31:51.992Z,101406.16
2023-01-30T03:32:43.700Z,101395.47
2023-01-30T03:33:35.283Z,101395.94
2023-01-30T03:34:26.775Z,101400.13
2023-01-30T03:35:18.902Z,101398.69
2023-01-30T03:36:12.356Z,101396.22
2023-01-30T03:37:06.144Z,101399.41
2023-01-30T03:38:00.349Z,101390.63
2023-01-30T03:38:52.389Z,101395.06
2023-01-30T03:39:45.266Z,101384.75
2023-01-30T03:40:40.129Z,101389.00
2023-01-30T03:41:32.200Z,101386.09
2023-01-30T03:42:26.029Z,101385.63
2023-01-30T03:43:18.569Z,101382.97
2023-01-30T03:44:10.166Z,101381.81
2023-01-30T03:45:01.827Z,101375.50
2023-01-30T03:45:53.417Z,101378.78
2023-01-30T03:46:45.711Z,101375.16
2023-01-30T03:47:37.816Z,101381.19
2023-01-30T03:48:30.611Z,101384.72
2023-01-30T03:49:37.487Z,101366.00
2023-01-30T03:50:29.650Z,101358.16
2023-01-30T03:51:21.613Z,101355.59
2023-01-30T03:52:13.226Z,101365.91
2023-01-30T03:53:04.694Z,101375.56
2023-01-30T03:53:56.321Z,101363.94
2023-01-30T03:54:48.042Z,101364.66
2023-01-30T03:55:40.447Z,101362.78
2023-01-30T03:56:32.167Z,101349.72
2023-01-30T03:57:24.536Z,101345.22
2023-01-30T03:58:16.199Z,101351.56
2023-01-30T03:59:09.166Z,101345.91
2023-01-30T04:00:06.971Z,101351.34
2023-01-30T04:01:07.728Z,101353.38
2023-01-30T04:01:59.359Z,101348.13
2023-01-30T04:02:51.244Z,101346.25
2023-01-30T04:03:43.062Z,101345.03
2023-01-30T04:04:35.259Z,101344.91
2023-01-30T04:05:29.564Z,101346.69
2023-01-30T04:06:27.960Z,101338.78
2023-01-30T04:07:20.794Z,101343.94
2023-01-30T04:08:15.157Z,101332.84
2023-01-30T04:09:06.928Z,101325.38
2023-01-30T04:10:09.671Z,101338.91
2023-01-30T04:11:01.442Z,101343.59
2023-01-30T04:11:56.606Z,101334.16
2023-01-30T04:12:49.834Z,101331.50
2023-01-30T04:13:42.465Z,101331.41
2023-01-30T04:14:35.150Z,101328.81
2023-01-30T04:15:40.783Z,101324.75
2023-01-30T04:16:49.400Z,101316.84
2023-01-30T04:18:06.226Z,101324.56
2023-01-30T04:19:13.762Z,101310.09
2023-01-30T04:20:06.827Z,101312.38
2023-01-30T04:21:00.362Z,101302.88
2023-01-30T04:22:00.355Z,101301.91
2023-01-30T04:22:51.886Z,101304.31
2023-01-30T04:23:43.505Z,101306.69
2023-01-30T04:24:35.009Z,101300.66
2023-01-30T04:25:26.624Z,101295.41
2023-01-30T04:26:18.168Z,101305.09
2023-01-30T04:27:10.358Z,101308.47
2023-01-30T04:28:08.498Z,101298.22
2023-01-30T04:29:02.320Z,101307.41
2023-01-30T04:29:54.910Z,101314.00
2023-01-30T04:30:46.447Z,101310.56
2023-01-30T04:32:07.207Z,101309.56
2023-01-30T04:33:00.980Z,101321.19
2023-01-30T04:33:52.406Z,101309.28
2023-01-30T04:34:45.049Z,101319.13
2023-01-30T04:35:36.520Z,101320.97
2023-01-30T04:36:29.293Z,101324.28
2023-01-30T04:37:20.810Z,101330.56
2023-01-30T04:38:13.526Z,101327.72
2023-01-30T04:39:05.201Z,101322.75
2023-01-30T04:39:57.583Z,101314.84
2023-01-30T04:40:55.093Z,101327.09
2023-01-30T04:41:47.854Z,101332.19
2023-01-30T04:42:40.233Z,101322.19
2023-01-30T04:44:07.188Z,101336.00
2023-01-30T04:45:14.319Z,101325.69
2023-01-30T04:46:06.116Z,101329.50
2023-01-30T04:46:57.784Z,101320.44
2023-01-30T04:47:49.435Z,101318.31
2023-01-30T04:48:41.137Z,101310.16
2023-01-30T04:49:32.616Z,101306.94
2023-01-30T04:50:25.232Z,101313.00
2023-01-30T04:51:16.886Z,101310.25
2023-01-30T04:52:09.048Z,101308.06
2023-01-30T04:53:01.359Z,101315.09
2023-01-30T04:53:53.042Z,101313.06
2023-01-30T04:54:44.651Z,101305.31
2023-01-30T04:55:37.779Z,101308.88
2023-01-30T04:56:29.378Z,101309.69
2023-01-30T04:57:21.100Z,101309.78
2023-01-30T04:58:12.800Z,101300.97
2023-01-30T04:59:04.449Z,101301.72
2023-01-30T05:00:01.595Z,101308.66
2023-01-30T05:00:53.239Z,101306.69
2023-01-30T05:01:44.976Z,101316.22
2023-01-30T05:02:36.493Z,101303.31
2023-01-30T05:03:28.009Z,101311.22
2023-01-30T05:04:19.519Z,101304.63
2023-01-30T05:05:10.986Z,101287.22
2023-01-30T05:06:02.426Z,101295.81
2023-01-30T05:06:54.178Z,101297.69
2023-01-30T05:07:49.486Z,101293.34
2023-01-30T05:08:46.591Z,101290.75
2023-01-30T05:09:38.485Z,101287.22
2023-01-30T05:10:30.074Z,101289.97
2023-01-30T05:11:23.563Z,101291.56
2023-01-30T05:12:15.091Z,101292.44
2023-01-30T05:13:07.159Z,101289.97
2023-01-30T05:13:59.394Z,101295.66
2023-01-30T05:14:51.044Z,101295.59
2023-01-30T05:15:42.448Z,101284.63
2023-01-30T05:16:33.879Z,101288.72
2023-01-30T05:17:25.438Z,101297.91
2023-01-30T05:18:17.372Z,101300.66
2023-01-30T05:19:13.082Z,101285.28
2023-01-30T05:20:07.243Z,101286.09
2023-01-30T05:21:31.520Z,101285.19
2023-01-30T05:22:22.982Z,101290.16
2023-01-30T05:23:14.443Z,101283.41
2023-01-30T05:24:06.408Z,101281.78
2023-01-30T05:24:57.809Z,101289.47
2023-01-30T05:25:49.257Z,101290.25
2023-01-30T05:26:40.911Z,101285.97
2023-01-30T05:27:32.591Z,101285.00
2023-01-30T05:28:24.328Z,101286.63
2023-01-30T05:29:15.975Z,101285.91
2023-01-30T05:30:08.528Z,101292.91
2023-01-30T05:31:05.587Z,101273.84
2023-01-30T05:31:57.419Z,101271.09
2023-01-30T05:32:49.043Z,101277.03
2023-01-30T05:33:41.362Z,101275.06
2023-01-30T05:34:32.913Z,101270.81
2023-01-30T05:35:24.546Z,101266.75
2023-01-30T05:36:19.326Z,101278.72
2023-01-30T05:37:12.474Z,101276.78
2023-01-30T05:38:04.263Z,101279.81
2023-01-30T05:38:55.936Z,101269.34
2023-01-30T05:39:47.901Z,101276.50
2023-01-30T05:40:39.346Z,101272.16
2023-01-30T05:41:30.880Z,101275.63
2023-01-30T05:42:22.438Z,101280.97
2023-01-30T05:43:13.841Z,101270.50
2023-01-30T05:44:05.740Z,101270.38
2023-01-30T05:44:57.261Z,101264.09
2023-01-30T05:45:55.111Z,101264.09
2023-01-30T05:46:46.575Z,101273.94
2023-01-30T05:47:38.019Z,101257.34
2023-01-30T05:48:29.844Z,101273.69
2023-01-30T05:49:21.773Z,101263.56
2023-01-30T05:50:13.472Z,101262.81
2023-01-30T05:51:05.260Z,101269.34
2023-01-30T05:51:57.230Z,101260.72
2023-01-30T05:52:48.887Z,101274.34
2023-01-30T05:53:40.290Z,101265.06
2023-01-30T05:54:31.962Z,101263.47
2023-01-30T05:55:23.638Z,101268.78
2023-01-30T05:56:16.180Z,101279.53
2023-01-30T05:57:07.610Z,101271.63
2023-01-30T05:57:59.000Z,101267.75
2023-01-30T05:58:55.304Z,101280.16
2023-01-30T05:59:47.036Z,101274.09
2023-01-30T06:00:38.852Z,101275.63
2023-01-30T06:01:30.693Z,101270.66
2023-01-30T06:02:22.164Z,101272.44
2023-01-30T06:03:13.874Z,101274.53
2023-01-30T06:04:05.597Z,101275.88
2023-01-30T06:04:57.380Z,101275.38
2023-01-30T06:05:48.804Z,101273.88
2023-01-30T06:06:40.235Z,101266.38
2023-01-30T06:07:32.121Z,101267.09
2023-01-30T06:08:24.027Z,101271.34
2023-01-30T06:09:15.643Z,101276.44
2023-01-30T06:10:07.371Z,101282.81
2023-01-30T06:11:08.519Z,101275.28
2023-01-30T06:11:59.988Z,101271.69
2023-01-30T06:12:51.438Z,101275.06
2023-01-30T06:13:43.917Z,101273.28
2023-01-30T06:14:35.628Z,101269.84
2023-01-30T06:15:27.461Z,101270.66
2023-01-30T06:16:19.711Z,101278.81
2023-01-30T06:17:11.284Z,101273.50
2023-01-30T06:18:03.027Z,101279.09
2023-01-30T06:18:54.777Z,101269.75
2023-01-30T06:19:46.657Z,101270.56
2023-01-30T06:20:38.219Z,101283.53
2023-01-30T06:21:29.668Z,101290.53
2023-01-30T06:22:21.101Z,101289.66
2023-01-30T06:23:12.495Z,101290.63
2023-01-30T06:24:04.246Z,101291.78
2023-01-30T06:24:55.794Z,101283.88
2023-01-30T06:25:49.555Z,101284.56
2023-01-30T06:26:41.126Z,101282.56
2023-01-30T06:27:32.730Z,101280.88
2023-01-30T06:28:25.727Z,101282.75
2023-01-30T06:29:17.348Z,101281.59
2023-01-30T06:30:09.623Z,101290.19
2023-01-30T06:31:01.705Z,101290.75
2023-01-30T06:31:53.486Z,101304.78
2023-01-30T06:32:44.993Z,101296.94
2023-01-30T06:33:36.450Z,101298.25
2023-01-30T06:34:27.894Z,101303.53
2023-01-30T06:35:19.818Z,101302.88
2023-01-30T06:36:11.565Z,101310.78
2023-01-30T06:37:03.217Z,101308.94
2023-01-30T06:37:54.625Z,101299.44
2023-01-30T06:38:46.141Z,101301.13
2023-01-30T06:39:37.565Z,101291.78
2023-01-30T06:40:29.269Z,101291.94
2023-01-30T06:41:21.013Z,101291.94
2023-01-30T06:42:12.576Z,101282.78
2023-01-30T06:43:04.703Z,101288.31
2023-01-30T06:43:56.250Z,101284.84
2023-01-30T06:44:47.729Z,101284.69
2023-01-30T06:45:40.081Z,101287.53
2023-01-30T06:46:31.523Z,101291.88
2023-01-30T06:47:23.290Z,101288.16
2023-01-30T06:48:14.901Z,101295.25
2023-01-30T06:49:06.444Z,101290.97
2023-01-30T06:49:58.143Z,101284.16
2023-01-30T06:50:49.844Z,101287.75
2023-01-30T06:51:41.508Z,101291.13
2023-01-30T06:52:33.044Z,101296.94
2023-01-30T06:53:30.219Z,101292.91
2023-01-30T06:54:21.889Z,101297.91
2023-01-30T06:55:16.399Z,101291.06
2023-01-30T06:56:08.183Z,101294.50
2023-01-30T06:56:59.624Z,101294.94
2023-01-30T06:58:06.862Z,101291.63
2023-01-30T06:58:58.539Z,101305.31
2023-01-30T06:59:50.188Z,101304.47
2023-01-30T07:00:43.244Z,101301.63
2023-01-30T07:01:35.011Z,101306.78
2023-01-30T07:02:35.099Z,101307.66
2023-01-30T07:03:26.862Z,101306.78
2023-01-30T07:04:18.621Z,101312.03
2023-01-30T07:05:11.509Z,101313.53
2023-01-30T07:06:03.110Z,101314.03
2023-01-30T07:06:54.834Z,101314.84
2023-01-30T07:07:47.397Z,101322.56
2023-01-30T07:08:40.713Z,101323.31
2023-01-30T07:09:32.116Z,101334.59
2023-01-30T07:10:24.259Z,101331.38
2023-01-30T07:11:15.949Z,101336.81
2023-01-30T07:12:07.467Z,101343.72
2023-01-30T07:12:59.760Z,101328.09
2023-01-30T07:13:51.404Z,101327.28
2023-01-30T07:14:43.119Z,101325.41
2023-01-30T07:15:34.659Z,101329.06
2023-01-30T07:16:29.346Z,101322.66
2023-01-30T07:17:22.473Z,101326.06
2023-01-30T07:18:14.249Z,101332.06
2023-01-30T07:19:05.865Z,101328.78
2023-01-30T07:19:57.318Z,101326.13
2023-01-30T07:20:49.510Z,101327.91
2023-01-30T07:21:41.119Z,101324.78
2023-01-30T07:22:33.445Z,101321.16
2023-01-30T07:23:25.138Z,101313.50
2023-01-30T07:24:16.550Z,101317.13
2023-01-30T07:25:09.128Z,101319.63
2023-01-30T07:26:05.131Z,101321.41
2023-01-30T07:26:57.159Z,101324.78
2023-01-30T07:27:56.214Z,101325.75
2023-01-30T07:28:47.764Z,101319.47
2023-01-30T07:29:40.435Z,101317.78
2023-01-30T07:30:35.884Z,101307.38
2023-01-30T07:31:27.408Z,101308.16
2023-01-30T07:32:20.122Z,101305.69
2023-01-30T07:33:20.311Z,101309.16
2023-01-30T07:34:11.833Z,101311.19
2023-01-30T07:35:05.835Z,101310.28
2023-01-30T07:35:57.731Z,101314.56
2023-01-30T07:36:49.227Z,101323.34
2023-01-30T07:37:41.660Z,101326.72
2023-01-30T07:38:33.292Z,101319.34
2023-01-30T07:39:24.894Z,101328.00
2023-01-30T07:40:16.916Z,101320.91
2023-01-30T07:41:08.580Z,101323.81
2023-01-30T07:42:01.506Z,101330.66
2023-01-30T07:43:02.273Z,101323.28
2023-01-30T07:45:03.118Z,101319.47
2023-01-30T07:45:55.038Z,101319.34
2023-01-30T07:46:46.513Z,101316.00
2023-01-30T07:47:38.106Z,101323.97
2023-01-30T07:48:29.559Z,101329.13
2023-01-30T07:49:21.426Z,101333.25
2023-01-30T07:50:12.863Z,101330.66
2023-01-30T07:51:04.368Z,101329.41
2023-01-30T07:51:55.829Z,101333.47
2023-01-30T07:52:47.337Z,101330.91
2023-01-30T07:53:38.877Z,101323.34
2023-01-30T07:54:30.378Z,101328.75
2023-01-30T07:55:21.892Z,101334.78
2023-01-30T07:56:18.512Z,101336.16
2023-01-30T07:57:10.053Z,101334.44
2023-01-30T07:58:01.947Z,101331.81
2023-01-30T07:58:57.154Z,101331.00
2023-01-30T07:59:48.575Z,101326.56
2023-01-30T08:00:40.949Z,101331.22
2023-01-30T08:01:33.142Z,101331.34
2023-01-30T08:02:24.697Z,101338.81
2023-01-30T08:03:17.406Z,101340.75
2023-01-30T08:04:08.945Z,101337.19
2023-01-30T08:05:00.653Z,101337.38
2023-01-30T08:05:54.029Z,101340.03
2023-01-30T08:06:45.783Z,101337.47
2023-01-30T08:07:37.230Z,101347.84
2023-01-30T08:08:29.219Z,101333.28
2023-01-30T08:09:20.979Z,101336.81
2023-01-30T08:10:12.493Z,101337.97
2023-01-30T08:11:04.005Z,101335.47
2023-01-30T08:11:55.697Z,101329.75
2023-01-30T08:12:50.784Z,101316.53
2023-01-30T08:13:42.245Z,101328.56
2023-01-30T08:14:33.795Z,101320.72
2023-01-30T08:15:25.422Z,101325.00
2023-01-30T08:16:17.099Z,101332.16
2023-01-30T08:17:08.611Z,101332.91
2023-01-30T08:18:00.392Z,101334.75
2023-01-30T08:18:51.925Z,101336.28
2023-01-30T08:19:43.600Z,101332.84
2023-01-30T08:20:36.089Z,101341.28
2023-01-30T08:21:28.322Z,101341.38
2023-01-30T08:22:19.942Z,101339.19
2023-01-30T08:23:12.485Z,101340.81
2023-01-30T08:24:04.338Z,101342.75
2023-01-30T08:24:55.923Z,101352.19
2023-01-30T08:25:47.413Z,101348.00
2023-01-30T08:26:39.333Z,101349.69
2023-01-30T08:27:31.009Z,101359.44
2023-01-30T08:28:23.147Z,101357.78
2023-01-30T08:29:14.853Z,101357.69
2023-01-30T08:30:06.965Z,101352.59
2023-01-30T08:30:59.281Z,101348.31
2023-01-30T08:31:51.414Z,101357.13
2023-01-30T08:32:46.813Z,101356.16
2023-01-30T08:33:38.638Z,101358.91
2023-01-30T08:34:30.366Z,101353.78
2023-01-30T08:35:22.062Z,101359.88
2023-01-30T08:36:13.865Z,101352.50
2023-01-30T08:37:08.496Z,101355.88
2023-01-30T08:38:05.687Z,101367.13
2023-01-30T08:38:57.164Z,101366.16
2023-01-30T08:39:48.614Z,101360.09
2023-01-30T08:40:40.420Z,101359.38
2023-01-30T08:41:31.927Z,101359.22
2023-01-30T08:42:23.506Z,101358.31
2023-01-30T08:43:15.048Z,101346.78
2023-01-30T08:44:06.625Z,101348.41
2023-01-30T08:44:58.157Z,101344.78
2023-01-30T08:45:53.460Z,101359.59
2023-01-30T08:46:45.067Z,101359.75
2023-01-30T08:47:36.936Z,101358.09
2023-01-30T08:48:34.126Z,101359.91
2023-01-30T08:49:31.623Z,101363.91
2023-01-30T08:50:23.074Z,101369.13
2023-01-30T08:51:14.957Z,101358.63
2023-01-30T08:52:06.678Z,101361.69
2023-01-30T08:53:02.529Z,101363.25
2023-01-30T08:53:54.244Z,101374.59
2023-01-30T08:54:45.939Z,101361.84
2023-01-30T08:55:37.478Z,101360.41
2023-01-30T08:56:28.952Z,101362.91
2023-01-30T08:57:20.660Z,101357.19
2023-01-30T08:58:12.349Z,101357.25
2023-01-30T08:59:04.102Z,101347.19
2023-01-30T08:59:55.838Z,101348.81
2023-01-30T09:00:49.404Z,101353.16
2023-01-30T09:01:41.181Z,101356.44
2023-01-30T09:02:32.972Z,101367.75
2023-01-30T09:03:24.493Z,101362.84
2023-01-30T09:04:17.105Z,101366.53
2023-01-30T09:05:10.941Z,101370.47
2023-01-30T09:06:02.705Z,101370.78
2023-01-30T09:06:54.827Z,101365.03
2023-01-30T09:07:46.304Z,101366.81
2023-01-30T09:08:37.942Z,101365.56
2023-01-30T09:09:30.376Z,101365.72
2023-01-30T09:10:24.391Z,101366.94
2023-01-30T09:11:17.688Z,101366.19
2023-01-30T09:12:09.248Z,101379.19
2023-01-30T09:13:00.811Z,101380.72
2023-01-30T09:13:52.317Z,101372.97
2023-01-30T09:14:43.825Z,101380.72
2023-01-30T09:15:35.331Z,101378.94
2023-01-30T09:16:26.936Z,101389.06
2023-01-30T09:17:18.845Z,101378.66
2023-01-30T09:18:10.251Z,101385.59
2023-01-30T09:19:01.727Z,101383.00
2023-01-30T09:19:53.673Z,101383.66
2023-01-30T09:20:46.165Z,101381.94
2023-01-30T09:21:38.972Z,101390.69
2023-01-30T09:22:30.575Z,101393.50
2023-01-30T09:23:22.074Z,101380.88
2023-01-30T09:24:13.691Z,101376.66
2023-01-30T09:25:08.085Z,101382.94
2023-01-30T09:26:00.385Z,101380.16
2023-01-30T09:26:57.699Z,101359.47
2023-01-30T09:27:50.544Z,101374.03
2023-01-30T09:28:42.202Z,101369.88
2023-01-30T09:29:33.887Z,101346.59
2023-01-30T09:30:25.964Z,101352.03
2023-01-30T09:31:17.743Z,101355.84
2023-01-30T09:32:09.296Z,101350.94
2023-01-30T09:33:00.767Z,101351.81
2023-01-30T09:33:52.387Z,101354.78
2023-01-30T09:34:44.025Z,101351.41
2023-01-30T09:35:35.607Z,101352.41
2023-01-30T09:36:27.227Z,101355.81
2023-01-30T09:37:18.976Z,101353.44
2023-01-30T09:38:10.522Z,101361.50
2023-01-30T09:39:02.008Z,101357.44
2023-01-30T09:39:54.958Z,101348.84
2023-01-30T09:41:08.021Z,101358.34
2023-01-30T09:42:25.908Z,101359.97
2023-01-30T09:43:17.289Z,101371.78
2023-01-30T09:44:46.373Z,101362.41
2023-01-30T09:45:45.490Z,101366.75
2023-01-30T09:46:50.416Z,101361.94
2023-01-30T09:48:10.982Z,101378.34
2023-01-30T09:49:14.389Z,101373.47
2023-01-30T09:50:21.330Z,101373.31
2023-01-30T09:51:44.296Z,101388.19
2023-01-30T09:52:59.734Z,101381.19
2023-01-30T09:54:20.146Z,101386.53
2023-01-30T09:55:19.750Z,101402.22
2023-01-30T09:56:11.378Z,101375.34
2023-01-30T09:57:21.284Z,101375.34
2023-01-30T09:58:19.923Z,101386.41
2023-01-30T09:59:25.078Z,101384.91
2023-01-30T10:00:24.567Z,101382.56
2023-01-30T10:01:31.777Z,101381.09
2023-01-30T10:03:03.420Z,101388.84
2023-01-30T10:04:11.726Z,101393.78
2023-01-30T10:05:05.123Z,101385.16
2023-01-30T10:06:02.510Z,101385.34
2023-01-30T10:07:18.080Z,101385.81
2023-01-30T10:08:40.332Z,101389.22
2023-01-30T10:10:05.036Z,101389.13
2023-01-30T10:11:19.850Z,101384.91
2023-01-30T10:12:31.703Z,101388.44
2023-01-30T10:13:29.106Z,101394.25
2023-01-30T10:14:46.341Z,101401.34
2023-01-30T10:16:10.552Z,101398.06
2023-01-30T10:17:23.151Z,101394.88
2023-01-30T10:18:46.280Z,101407.59
2023-01-30T10:20:20.883Z,101434.09
2023-01-30T10:21:42.727Z,101398.81
2023-01-30T10:22:53.745Z,101405.84
2023-01-30T10:24:05.570Z,101416.28
2023-01-30T10:25:15.539Z,101411.19
2023-01-30T10:26:16.486Z,101415.63
2023-01-30T10:27:17.496Z,101427.00
2023-01-30T10:28:16.402Z,101411.56
2023-01-30T10:29:14.005Z,101417.31
2023-01-30T10:30:10.374Z,101410.31
2023-01-30T10:31:13.587Z,101417.28
2023-01-30T10:32:11.396Z,101438.66
2023-01-30T10:33:06.081Z,101449.88
2023-01-30T10:34:04.109Z,101413.88
2023-01-30T10:35:14.526Z,101426.03
2023-01-30T10:36:20.828Z,101423.75
2023-01-30T10:37:30.884Z,101408.44
2023-01-30T10:38:35.517Z,101404.06
2023-01-30T10:39:55.208Z,101401.63